This is the latest recevied weather packets stored in our database for station/object NR0Q. If no packets are shown the sender has not sent any weather packets the latest 10 day(s).
| Time | Temp. | Humidity | Pressure | Rain* | Wind** | Luminosity | Snow |
|---|---|---|---|---|---|---|---|
| 1778262301 | 23.89° C | 47% | 1010.5 hPa | 0 mm | - | - | - |
| 1778261401 | 24.44° C | 46% | 1010.5 hPa | 0 mm | - | - | - |
| 1778260501 | 24.44° C | 46% | 1011.5 hPa | 0 mm | - | - | - |
| 1778259601 | 23.89° C | 46% | 1011.5 hPa | 0 mm | - | - | - |
| 1778258701 | 22.78° C | 48% | 1012.5 hPa | 0 mm | - | - | - |
| 1778257801 | 22.78° C | 48% | 1012.5 hPa | 0 mm | - | - | - |
| 1778256901 | 22.22° C | 49% | 1012.5 hPa | 0 mm | - | - | - |
| 1778256003 | 22.22° C | 50% | 1012.5 hPa | 0 mm | - | - | - |
| 1778255101 | 21.67° C | 53% | 1012.5 hPa | 0 mm | - | - | - |
| 1778254201 | 21.11° C | 52% | 1012.5 hPa | 0 mm | - | - | - |
| 1778253302 | 20.56° C | 55% | 1012.5 hPa | 0 mm | - | - | - |
| 1778252402 | 20.56° C | 57% | 1013.6 hPa | 0 mm | - | - | - |
| 1778251501 | 20° C | 57% | 1013.6 hPa | 0 mm | - | - | - |
| 1778250602 | 19.44° C | 59% | 1013.6 hPa | 0 mm | - | - | - |
| 1778249701 | 18.89° C | 61% | 1013.6 hPa | 0 mm | - | - | - |
| 1778248801 | 17.78° C | 63% | 1014.6 hPa | 0 mm | - | - | - |
| 1778247901 | 17.22° C | 68% | 1014.6 hPa | 0 mm | - | - | - |
| 1778247001 | 16.11° C | 69% | 1014.6 hPa | 0 mm | - | - | - |
| 1778246101 | 15.56° C | 71% | 1013.6 hPa | 0 mm | - | - | - |
| 1778245201 | 15° C | 72% | 1013.6 hPa | 0 mm | - | - | - |
| 1778244302 | 13.89° C | 74% | 1014.6 hPa | 0 mm | - | - | - |
| 1778243402 | 12.78° C | 77% | 1013.6 hPa | 0 mm | - | - | - |
| 1778242502 | 11.11° C | 83% | 1013.6 hPa | 0 mm | - | - | - |
| 1778241601 | 10° C | 88% | 1013.6 hPa | 0 mm | - | - | - |
| 1778240701 | 10° C | 86% | 1013.6 hPa | 0 mm | - | - | - |
* Rain latest hour (hover to see other rain measurements)
** Current wind speed in m/s (hover to see current wind gust speed)